KMWM/MWM METAR and TAF weather

Enter ICAO airport designator
Station Type Date Time Source
KMWM METAR 2019/04/23 00:36 UTC NOAA

KMWM 230036Z AUTO 36017G27KT 10SM OVC012 07/06 A3006 RMK AO2


Station Type Date Time Source
KMWM Decoded METAR 2019/04/23 00:36 UTC NOAA

Windom, Windom Municipal Airport, MN, United States (KMWM) 43-54-48N 095-06-34W
Apr 22, 2019 - 08:36 PM EDT / 2019.04.23 0036 UTC
Wind: from the N (360 degrees) at 20 MPH (17 KT) gusting to 31 MPH (27 KT):0
Visibility: 10 mile(s):0
Sky conditions: overcast
Temperature: 44 F (7 C)
Dew Point: 42 F (6 C)
Relative Humidity: 93%
Pressure (altimeter): 30.06 in. Hg (1017 hPa)
ob: KMWM 230036Z AUTO 36017G27KT 10SM OVC012 07/06 A3006 RMK AO2
cycle: 0

Station Type Date Time Source
KMWM TAF UTC NOAA

Error!

Example: see airport list